ACA898 CYUL-LGAV
Flight info
| Callsign | ACA898 |
|---|---|
| Flight time | N/A |
| Altitude | 33000 |
| Route | ANTEG DCT OBRON DCT MOBUB DCT EBMOS DCT BAREE N581A TUDEP/M084F350 DCT 52N050W 54N040W 55N030W 55N020W DCT DOGAL DCT BEXET/N0475F350 DCT ERABI DCT TIPUR DCT CML DCT ENJEX DCT ADHAV DCT AGCAT DCT AXNEF DCT ZIPWE DCT OZZIL DCT SAWPE Q63 CPT UL9 BIG L607 KONAN DCT KOK DCT SISGA DCT RITAX/N0478F370 DCT KRH DCT KUNOD DCT GEDSO DCT VEKEN DCT SEHOR DCT RUGOG DCT ELTIB DCT LOPKU DCT AKIKA DCT ENFAR DCT PEP DCT TALAS UM749 ROPOX |
| Aircraft | B77W/H-SDE1E2E3FGHIJ2J3J4J5M1RWXY/LB1D1 |
Departure
| Time | 2026-05-07 15:48 |
|---|---|
| Airport | Montreal / Pierre Elliott Trudeau International Airport (CYUL) |
Arrival
| Time | N/A |
|---|---|
| Airport | Athens Eleftherios Venizelos International Airport (LGAV) |
| Time | Latitude | Longitude | Altitude | Speed | Heading |
|---|---|---|---|---|---|
| 2026-05-07 15:19 | 45.45943 | -73.75137 | 113 ft | 0 kts | 180° |
| 2026-05-07 15:39 | 45.45965 | -73.75135 | 114 ft | 4 kts | 194° |
| 2026-05-07 15:39 | 45.45990 | -73.75120 | 114 ft | 4 kts | 218° |
| 2026-05-07 15:40 | 45.46007 | -73.75093 | 114 ft | 4 kts | 250° |
| 2026-05-07 15:40 | 45.46010 | -73.75077 | 114 ft | 1 kts | 265° |
| 2026-05-07 15:42 | 45.46010 | -73.75084 | 114 ft | 3 kts | 265° |
| 2026-05-07 15:42 | 45.46005 | -73.75159 | 115 ft | 12 kts | 267° |
| 2026-05-07 15:42 | 45.46032 | -73.75307 | 113 ft | 14 kts | 295° |
| 2026-05-07 15:42 | 45.46093 | -73.75366 | 115 ft | 12 kts | 1° |
| 2026-05-07 15:43 | 45.46143 | -73.75278 | 120 ft | 14 kts | 80° |
| 2026-05-07 15:43 | 45.46149 | -73.75099 | 122 ft | 22 kts | 88° |
| 2026-05-07 15:43 | 45.46156 | -73.74842 | 119 ft | 28 kts | 87° |
| 2026-05-07 15:43 | 45.46143 | -73.74564 | 119 ft | 28 kts | 109° |
| 2026-05-07 15:44 | 45.46124 | -73.74290 | 117 ft | 28 kts | 88° |
| 2026-05-07 15:44 | 45.46176 | -73.74024 | 115 ft | 28 kts | 55° |
| 2026-05-07 15:44 | 45.46316 | -73.73826 | 119 ft | 28 kts | 42° |
| 2026-05-07 15:44 | 45.46462 | -73.73637 | 121 ft | 28 kts | 42° |
| 2026-05-07 15:45 | 45.46608 | -73.73447 | 116 ft | 28 kts | 43° |
| 2026-05-07 15:45 | 45.46751 | -73.73254 | 115 ft | 28 kts | 43° |
| 2026-05-07 15:45 | 45.46895 | -73.73065 | 117 ft | 28 kts | 43° |
| 2026-05-07 15:45 | 45.47040 | -73.72875 | 119 ft | 28 kts | 43° |
| 2026-05-07 15:46 | 45.47330 | -73.72494 | 115 ft | 28 kts | 43° |
| 2026-05-07 15:46 | 45.47475 | -73.72304 | 116 ft | 28 kts | 42° |
| 2026-05-07 15:46 | 45.47618 | -73.72117 | 117 ft | 28 kts | 43° |
| 2026-05-07 15:47 | 45.47765 | -73.71928 | 119 ft | 28 kts | 42° |
| 2026-05-07 15:47 | 45.47836 | -73.71775 | 118 ft | 14 kts | 105° |
| 2026-05-07 15:47 | 45.47760 | -73.71671 | 114 ft | 16 kts | 155° |
| 2026-05-07 15:47 | 45.47647 | -73.71678 | 115 ft | 23 kts | 216° |
| 2026-05-07 15:48 | 45.47387 | -73.72016 | 114 ft | 88 kts | 223° |
| 2026-05-07 15:48 | 45.46770 | -73.72831 | 115 ft | 155 kts | 222° |
| 2026-05-07 15:48 | 45.45865 | -73.73957 | 379 ft | 180 kts | 225° |
| 2026-05-07 15:48 | 45.44912 | -73.75169 | 993 ft | 189 kts | 229° |
| 2026-05-07 15:49 | 45.44012 | -73.76589 | 1655 ft | 194 kts | 240° |
| 2026-05-07 15:49 | 45.43652 | -73.78473 | 1943 ft | 210 kts | 274° |
| 2026-05-07 15:49 | 45.44088 | -73.80507 | 2427 ft | 224 kts | 297° |
| 2026-05-07 15:49 | 45.45183 | -73.82131 | 2974 ft | 240 kts | 327° |
| 2026-05-07 15:50 | 45.46842 | -73.82751 | 3653 ft | 257 kts | 0° |
| 2026-05-07 15:50 | 45.48557 | -73.81878 | 4283 ft | 272 kts | 32° |
| 2026-05-07 15:50 | 45.49995 | -73.80126 | 4884 ft | 279 kts | 39° |
| 2026-05-07 15:50 | 45.51424 | -73.78213 | 5723 ft | 277 kts | 40° |
| 2026-05-07 15:51 | 45.52834 | -73.76310 | 6431 ft | 282 kts | 39° |
| 2026-05-07 15:51 | 45.54266 | -73.74402 | 7129 ft | 283 kts | 39° |
| 2026-05-07 15:51 | 45.55723 | -73.72481 | 7789 ft | 287 kts | 39° |
| 2026-05-07 15:51 | 45.57181 | -73.70575 | 8511 ft | 288 kts | 39° |
| 2026-05-07 15:52 | 45.58680 | -73.68633 | 9183 ft | 292 kts | 39° |
| 2026-05-07 15:52 | 45.60193 | -73.66682 | 9870 ft | 294 kts | 38° |
| 2026-05-07 15:52 | 45.61736 | -73.64699 | 10306 ft | 306 kts | 38° |
| 2026-05-07 15:52 | 45.63382 | -73.62597 | 10463 ft | 328 kts | 38° |
| 2026-05-07 15:53 | 45.65136 | -73.60359 | 10642 ft | 350 kts | 39° |
| 2026-05-07 15:53 | 45.67007 | -73.57970 | 10839 ft | 371 kts | 39° |
| 2026-05-07 15:53 | 45.68966 | -73.55463 | 11369 ft | 382 kts | 39° |
| 2026-05-07 15:53 | 45.70968 | -73.52896 | 12017 ft | 390 kts | 39° |
| 2026-05-07 15:54 | 45.73003 | -73.50283 | 12793 ft | 395 kts | 39° |
| 2026-05-07 15:54 | 45.75038 | -73.47670 | 13567 ft | 401 kts | 39° |
| 2026-05-07 15:54 | 45.77132 | -73.44980 | 14257 ft | 406 kts | 39° |
| 2026-05-07 15:54 | 45.79256 | -73.42247 | 14968 ft | 411 kts | 39° |
| 2026-05-07 15:55 | 45.81398 | -73.39492 | 15613 ft | 418 kts | 39° |
| 2026-05-07 15:55 | 45.83585 | -73.36679 | 16230 ft | 425 kts | 39° |
| 2026-05-07 15:55 | 45.85776 | -73.33856 | 16883 ft | 431 kts | 39° |
| 2026-05-07 15:55 | 45.88027 | -73.30950 | 17544 ft | 437 kts | 39° |
| 2026-05-07 15:56 | 45.90298 | -73.28017 | 18169 ft | 443 kts | 39° |
| 2026-05-07 15:56 | 45.92600 | -73.25039 | 18715 ft | 448 kts | 39° |
| 2026-05-07 15:56 | 45.94930 | -73.22022 | 19323 ft | 453 kts | 39° |
| 2026-05-07 15:56 | 45.97284 | -73.18968 | 19902 ft | 457 kts | 39° |
| 2026-05-07 15:57 | 45.99659 | -73.15885 | 20445 ft | 463 kts | 39° |
| 2026-05-07 15:57 | 46.02056 | -73.12770 | 20906 ft | 470 kts | 39° |
| 2026-05-07 15:57 | 46.04519 | -73.09567 | 21192 ft | 481 kts | 39° |
| 2026-05-07 15:57 | 46.07021 | -73.06308 | 21688 ft | 487 kts | 39° |
| 2026-05-07 15:58 | 46.09503 | -73.03067 | 22285 ft | 490 kts | 39° |
| 2026-05-07 15:58 | 46.12039 | -72.99753 | 22879 ft | 493 kts | 39° |
| 2026-05-07 15:58 | 46.14581 | -72.96410 | 23471 ft | 496 kts | 41° |
| 2026-05-07 15:58 | 46.16974 | -72.92768 | 23867 ft | 503 kts | 47° |
| 2026-05-07 15:59 | 46.19152 | -72.88769 | 24266 ft | 509 kts | 53° |
| 2026-05-07 15:59 | 46.21063 | -72.84420 | 24717 ft | 513 kts | 58° |
| 2026-05-07 15:59 | 46.22870 | -72.80016 | 25154 ft | 517 kts | 59° |
| 2026-05-07 15:59 | 46.24694 | -72.75517 | 25572 ft | 521 kts | 59° |
| 2026-05-07 16:00 | 46.26538 | -72.70978 | 25982 ft | 525 kts | 58° |
| 2026-05-07 16:00 | 46.28402 | -72.66418 | 26447 ft | 527 kts | 58° |
| 2026-05-07 16:00 | 46.30261 | -72.61898 | 26944 ft | 528 kts | 58° |
| 2026-05-07 16:00 | 46.32148 | -72.57326 | 27341 ft | 531 kts | 58° |
| 2026-05-07 16:01 | 46.34053 | -72.52718 | 27668 ft | 536 kts | 58° |
| 2026-05-07 16:01 | 46.35975 | -72.48064 | 27899 ft | 541 kts | 58° |
| 2026-05-07 16:01 | 46.37911 | -72.43363 | 28155 ft | 546 kts | 58° |
| 2026-05-07 16:01 | 46.39867 | -72.38602 | 28501 ft | 549 kts | 59° |
| 2026-05-07 16:02 | 46.41823 | -72.33831 | 28868 ft | 551 kts | 59° |
| 2026-05-07 16:02 | 46.43780 | -72.29046 | 29346 ft | 549 kts | 59° |
| 2026-05-07 16:02 | 46.45723 | -72.24288 | 29872 ft | 547 kts | 59° |
| 2026-05-07 16:02 | 46.47636 | -72.19593 | 30229 ft | 547 kts | 59° |
| 2026-05-07 16:03 | 46.49573 | -72.14835 | 30555 ft | 548 kts | 59° |
| 2026-05-07 16:03 | 46.51511 | -72.10067 | 30873 ft | 548 kts | 59° |
| 2026-05-07 16:03 | 46.53455 | -72.05307 | 31212 ft | 547 kts | 57° |
| 2026-05-07 16:03 | 46.55576 | -72.00701 | 31540 ft | 547 kts | 52° |
| 2026-05-07 16:04 | 46.57860 | -71.96596 | 31873 ft | 545 kts | 46° |
| 2026-05-07 16:04 | 46.60390 | -71.92515 | 32271 ft | 541 kts | 46° |
| 2026-05-07 16:04 | 46.62935 | -71.88466 | 32510 ft | 543 kts | 46° |
| 2026-05-07 16:04 | 46.65496 | -71.84396 | 32659 ft | 547 kts | 46° |
| 2026-05-07 16:05 | 46.67200 | -71.81673 | 32720 ft | 549 kts | 46° |
| 2026-05-07 16:05 | 46.72323 | -71.73392 | 32770 ft | 548 kts | 46° |
| 2026-05-07 16:06 | 46.77369 | -71.65130 | 32764 ft | 541 kts | 47° |
| 2026-05-07 16:06 | 46.82337 | -71.56956 | 32748 ft | 536 kts | 47° |